sensor_id;sensor_type;location;lat;lon;timestamp;P1;durP1;ratioP1;P2;durP2;ratioP2
73940;SDS011;62294;48.554;10.202;2023-02-28T00:01:25;2.40;;;1.17;;
73940;SDS011;62294;48.554;10.202;2023-02-28T00:03:52;2.47;;;1.33;;
73940;SDS011;62294;48.554;10.202;2023-02-28T00:06:19;3.45;;;2.25;;
73940;SDS011;62294;48.554;10.202;2023-02-28T00:08:47;2.67;;;1.92;;
73940;SDS011;62294;48.554;10.202;2023-02-28T00:11:14;5.25;;;2.15;;
73940;SDS011;62294;48.554;10.202;2023-02-28T00:13:42;2.90;;;2.15;;
73940;SDS011;62294;48.554;10.202;2023-02-28T00:16:14;2.17;;;1.77;;
73940;SDS011;62294;48.554;10.202;2023-02-28T00:18:42;3.47;;;1.75;;
73940;SDS011;62294;48.554;10.202;2023-02-28T00:21:09;1.45;;;1.35;;
73940;SDS011;62294;48.554;10.202;2023-02-28T00:23:36;2.75;;;1.60;;
73940;SDS011;62294;48.554;10.202;2023-02-28T00:26:02;5.72;;;1.30;;
73940;SDS011;62294;48.554;10.202;2023-02-28T00:28:30;3.30;;;1.80;;
73940;SDS011;62294;48.554;10.202;2023-02-28T00:30:56;3.42;;;1.85;;
73940;SDS011;62294;48.554;10.202;2023-02-28T00:33:23;3.47;;;1.63;;
73940;SDS011;62294;48.554;10.202;2023-02-28T00:35:50;3.53;;;1.95;;
73940;SDS011;62294;48.554;10.202;2023-02-28T00:38:17;2.97;;;1.58;;
73940;SDS011;62294;48.554;10.202;2023-02-28T00:40:44;2.15;;;1.45;;
73940;SDS011;62294;48.554;10.202;2023-02-28T00:43:10;5.70;;;2.05;;
73940;SDS011;62294;48.554;10.202;2023-02-28T00:45:37;2.47;;;1.52;;
73940;SDS011;62294;48.554;10.202;2023-02-28T00:48:04;5.18;;;2.28;;
73940;SDS011;62294;48.554;10.202;2023-02-28T00:50:30;2.20;;;1.50;;
73940;SDS011;62294;48.554;10.202;2023-02-28T00:52:57;2.97;;;1.63;;
73940;SDS011;62294;48.554;10.202;2023-02-28T00:55:24;2.22;;;1.60;;
73940;SDS011;62294;48.554;10.202;2023-02-28T00:57:50;2.72;;;1.52;;
73940;SDS011;62294;48.554;10.202;2023-02-28T01:00:17;4.25;;;2.20;;
73940;SDS011;62294;48.554;10.202;2023-02-28T01:02:44;3.72;;;1.75;;
73940;SDS011;62294;48.554;10.202;2023-02-28T01:05:10;4.60;;;2.50;;
73940;SDS011;62294;48.554;10.202;2023-02-28T01:07:37;3.05;;;2.00;;
73940;SDS011;62294;48.554;10.202;2023-02-28T01:10:04;2.60;;;1.90;;
73940;SDS011;62294;48.554;10.202;2023-02-28T01:12:31;8.70;;;1.85;;
73940;SDS011;62294;48.554;10.202;2023-02-28T01:14:58;4.85;;;2.08;;
73940;SDS011;62294;48.554;10.202;2023-02-28T01:17:24;2.80;;;1.45;;
73940;SDS011;62294;48.554;10.202;2023-02-28T01:19:53;3.90;;;2.15;;
73940;SDS011;62294;48.554;10.202;2023-02-28T01:22:21;2.85;;;1.77;;
73940;SDS011;62294;48.554;10.202;2023-02-28T01:24:48;3.22;;;1.95;;
73940;SDS011;62294;48.554;10.202;2023-02-28T01:27:15;4.00;;;2.05;;
73940;SDS011;62294;48.554;10.202;2023-02-28T01:29:41;3.85;;;2.00;;
73940;SDS011;62294;48.554;10.202;2023-02-28T01:32:08;1.38;;;1.27;;
73940;SDS011;62294;48.554;10.202;2023-02-28T01:34:35;5.45;;;1.48;;
73940;SDS011;62294;48.554;10.202;2023-02-28T01:37:01;3.50;;;1.95;;
73940;SDS011;62294;48.554;10.202;2023-02-28T01:39:29;4.68;;;2.40;;
73940;SDS011;62294;48.554;10.202;2023-02-28T01:41:56;3.33;;;1.65;;
73940;SDS011;62294;48.554;10.202;2023-02-28T01:47:28;1.38;;;1.08;;
73940;SDS011;62294;48.554;10.202;2023-02-28T01:49:57;4.50;;;1.92;;
73940;SDS011;62294;48.554;10.202;2023-02-28T01:52:27;3.72;;;2.17;;
73940;SDS011;62294;48.554;10.202;2023-02-28T01:54:55;5.75;;;1.58;;
73940;SDS011;62294;48.554;10.202;2023-02-28T01:57:24;5.00;;;2.03;;
73940;SDS011;62294;48.554;10.202;2023-02-28T02:00:00;4.78;;;2.15;;
73940;SDS011;62294;48.554;10.202;2023-02-28T02:02:31;4.65;;;1.80;;
73940;SDS011;62294;48.554;10.202;2023-02-28T02:07:35;3.38;;;2.13;;
73940;SDS011;62294;48.554;10.202;2023-02-28T02:10:06;5.25;;;3.45;;
73940;SDS011;62294;48.554;10.202;2023-02-28T02:15:21;5.13;;;2.22;;
73940;SDS011;62294;48.554;10.202;2023-02-28T02:17:58;2.90;;;2.03;;
73940;SDS011;62294;48.554;10.202;2023-02-28T02:35:01;1.50;;;1.40;;
73940;SDS011;62294;48.554;10.202;2023-02-28T02:37:41;6.60;;;1.35;;
73940;SDS011;62294;48.554;10.202;2023-02-28T02:40:30;2.83;;;1.75;;
73940;SDS011;62294;48.554;10.202;2023-02-28T02:43:16;3.38;;;2.42;;
73940;SDS011;62294;48.554;10.202;2023-02-28T02:46:02;4.80;;;2.45;;
73940;SDS011;62294;48.554;10.202;2023-02-28T02:48:35;3.40;;;2.08;;
73940;SDS011;62294;48.554;10.202;2023-02-28T02:51:06;2.70;;;1.70;;
73940;SDS011;62294;48.554;10.202;2023-02-28T02:53:40;3.50;;;1.77;;
73940;SDS011;62294;48.554;10.202;2023-02-28T02:56:12;2.77;;;1.63;;
73940;SDS011;62294;48.554;10.202;2023-02-28T02:58:41;3.67;;;1.85;;
73940;SDS011;62294;48.554;10.202;2023-02-28T03:01:12;3.75;;;2.10;;
73940;SDS011;62294;48.554;10.202;2023-02-28T03:03:58;4.68;;;2.35;;
73940;SDS011;62294;48.554;10.202;2023-02-28T03:06:28;2.45;;;1.55;;
73940;SDS011;62294;48.554;10.202;2023-02-28T03:08:55;1.13;;;1.05;;
73940;SDS011;62294;48.554;10.202;2023-02-28T03:11:22;3.15;;;2.10;;
73940;SDS011;62294;48.554;10.202;2023-02-28T03:13:52;3.40;;;1.92;;
73940;SDS011;62294;48.554;10.202;2023-02-28T03:22:24;6.88;;;3.33;;
73940;SDS011;62294;48.554;10.202;2023-02-28T03:28:16;6.45;;;3.50;;
73940;SDS011;62294;48.554;10.202;2023-02-28T03:30:59;3.80;;;2.15;;
73940;SDS011;62294;48.554;10.202;2023-02-28T03:33:38;5.28;;;2.92;;
73940;SDS011;62294;48.554;10.202;2023-02-28T03:36:10;3.22;;;2.33;;
73940;SDS011;62294;48.554;10.202;2023-02-28T03:41:28;6.97;;;3.22;;
73940;SDS011;62294;48.554;10.202;2023-02-28T03:44:00;5.10;;;2.70;;
73940;SDS011;62294;48.554;10.202;2023-02-28T03:46:33;4.35;;;1.98;;
73940;SDS011;62294;48.554;10.202;2023-02-28T03:49:07;4.93;;;2.97;;
73940;SDS011;62294;48.554;10.202;2023-02-28T03:51:42;3.92;;;2.50;;
73940;SDS011;62294;48.554;10.202;2023-02-28T03:54:15;3.72;;;2.25;;
73940;SDS011;62294;48.554;10.202;2023-02-28T03:56:51;4.93;;;2.47;;
73940;SDS011;62294;48.554;10.202;2023-02-28T04:04:46;5.65;;;2.83;;
73940;SDS011;62294;48.554;10.202;2023-02-28T04:07:15;7.40;;;3.08;;
73940;SDS011;62294;48.554;10.202;2023-02-28T04:09:42;2.88;;;2.00;;
73940;SDS011;62294;48.554;10.202;2023-02-28T04:12:09;5.78;;;2.83;;
73940;SDS011;62294;48.554;10.202;2023-02-28T04:14:36;5.72;;;3.55;;
73940;SDS011;62294;48.554;10.202;2023-02-28T04:17:02;4.65;;;1.95;;
73940;SDS011;62294;48.554;10.202;2023-02-28T04:19:30;5.38;;;2.60;;
73940;SDS011;62294;48.554;10.202;2023-02-28T04:21:56;5.70;;;2.83;;
73940;SDS011;62294;48.554;10.202;2023-02-28T04:24:24;8.85;;;3.20;;
73940;SDS011;62294;48.554;10.202;2023-02-28T04:26:53;5.45;;;3.28;;
73940;SDS011;62294;48.554;10.202;2023-02-28T04:29:22;7.15;;;3.83;;
73940;SDS011;62294;48.554;10.202;2023-02-28T04:31:50;12.75;;;4.30;;
73940;SDS011;62294;48.554;10.202;2023-02-28T04:34:19;5.63;;;2.78;;
73940;SDS011;62294;48.554;10.202;2023-02-28T04:36:47;6.57;;;3.08;;
73940;SDS011;62294;48.554;10.202;2023-02-28T04:39:36;4.50;;;2.22;;
73940;SDS011;62294;48.554;10.202;2023-02-28T04:42:03;5.57;;;3.10;;
73940;SDS011;62294;48.554;10.202;2023-02-28T04:44:30;6.43;;;3.42;;
73940;SDS011;62294;48.554;10.202;2023-02-28T04:46:56;7.18;;;3.58;;
73940;SDS011;62294;48.554;10.202;2023-02-28T04:49:23;5.80;;;2.75;;
73940;SDS011;62294;48.554;10.202;2023-02-28T04:51:50;11.00;;;4.03;;
73940;SDS011;62294;48.554;10.202;2023-02-28T04:54:16;5.70;;;3.30;;
73940;SDS011;62294;48.554;10.202;2023-02-28T04:56:44;5.47;;;2.83;;
73940;SDS011;62294;48.554;10.202;2023-02-28T04:59:10;5.57;;;3.67;;
73940;SDS011;62294;48.554;10.202;2023-02-28T05:01:37;6.40;;;2.75;;
73940;SDS011;62294;48.554;10.202;2023-02-28T05:04:04;6.45;;;3.10;;
73940;SDS011;62294;48.554;10.202;2023-02-28T05:06:32;7.60;;;3.33;;
73940;SDS011;62294;48.554;10.202;2023-02-28T05:08:59;12.57;;;4.10;;
73940;SDS011;62294;48.554;10.202;2023-02-28T05:11:30;8.30;;;3.47;;
73940;SDS011;62294;48.554;10.202;2023-02-28T05:14:03;4.93;;;2.70;;
73940;SDS011;62294;48.554;10.202;2023-02-28T05:16:31;6.88;;;3.50;;
73940;SDS011;62294;48.554;10.202;2023-02-28T05:18:58;6.80;;;3.42;;
73940;SDS011;62294;48.554;10.202;2023-02-28T05:21:30;3.17;;;1.85;;
73940;SDS011;62294;48.554;10.202;2023-02-28T05:23:59;5.95;;;3.38;;
73940;SDS011;62294;48.554;10.202;2023-02-28T05:26:34;6.13;;;3.58;;
73940;SDS011;62294;48.554;10.202;2023-02-28T05:29:03;6.78;;;3.30;;
73940;SDS011;62294;48.554;10.202;2023-02-28T05:31:29;4.75;;;2.88;;
73940;SDS011;62294;48.554;10.202;2023-02-28T05:33:56;9.00;;;4.32;;
73940;SDS011;62294;48.554;10.202;2023-02-28T05:36:23;7.80;;;3.83;;
73940;SDS011;62294;48.554;10.202;2023-02-28T05:38:51;8.77;;;4.78;;
73940;SDS011;62294;48.554;10.202;2023-02-28T05:41:18;8.65;;;4.38;;
73940;SDS011;62294;48.554;10.202;2023-02-28T05:43:46;3.85;;;2.42;;
73940;SDS011;62294;48.554;10.202;2023-02-28T05:46:13;8.15;;;4.15;;
73940;SDS011;62294;48.554;10.202;2023-02-28T05:48:41;7.05;;;3.38;;
73940;SDS011;62294;48.554;10.202;2023-02-28T05:51:09;6.22;;;3.17;;
73940;SDS011;62294;48.554;10.202;2023-02-28T05:53:35;7.75;;;3.63;;
73940;SDS011;62294;48.554;10.202;2023-02-28T05:56:02;4.07;;;2.60;;
73940;SDS011;62294;48.554;10.202;2023-02-28T05:58:30;6.47;;;3.45;;
73940;SDS011;62294;48.554;10.202;2023-02-28T06:01:01;6.13;;;3.28;;
73940;SDS011;62294;48.554;10.202;2023-02-28T06:03:46;8.60;;;4.13;;
73940;SDS011;62294;48.554;10.202;2023-02-28T06:06:13;9.65;;;5.03;;
73940;SDS011;62294;48.554;10.202;2023-02-28T06:08:39;10.55;;;5.80;;
73940;SDS011;62294;48.554;10.202;2023-02-28T06:11:06;9.02;;;4.55;;
73940;SDS011;62294;48.554;10.202;2023-02-28T06:13:33;8.82;;;4.55;;
73940;SDS011;62294;48.554;10.202;2023-02-28T06:16:02;7.00;;;4.70;;
73940;SDS011;62294;48.554;10.202;2023-02-28T06:18:29;7.45;;;4.05;;
73940;SDS011;62294;48.554;10.202;2023-02-28T06:20:56;11.70;;;5.85;;
73940;SDS011;62294;48.554;10.202;2023-02-28T06:23:22;7.70;;;3.83;;
73940;SDS011;62294;48.554;10.202;2023-02-28T06:25:49;8.38;;;4.65;;
73940;SDS011;62294;48.554;10.202;2023-02-28T06:28:16;6.80;;;3.60;;
73940;SDS011;62294;48.554;10.202;2023-02-28T06:30:42;13.40;;;4.45;;
73940;SDS011;62294;48.554;10.202;2023-02-28T06:33:11;8.65;;;5.05;;
73940;SDS011;62294;48.554;10.202;2023-02-28T06:35:38;9.13;;;4.10;;
73940;SDS011;62294;48.554;10.202;2023-02-28T06:38:04;8.50;;;3.72;;
73940;SDS011;62294;48.554;10.202;2023-02-28T06:40:31;5.10;;;2.92;;
73940;SDS011;62294;48.554;10.202;2023-02-28T06:43:01;9.45;;;3.97;;
73940;SDS011;62294;48.554;10.202;2023-02-28T06:45:27;9.10;;;5.68;;
73940;SDS011;62294;48.554;10.202;2023-02-28T06:47:54;9.13;;;5.28;;
73940;SDS011;62294;48.554;10.202;2023-02-28T06:50:21;8.02;;;4.88;;
73940;SDS011;62294;48.554;10.202;2023-02-28T06:52:47;5.63;;;3.20;;
73940;SDS011;62294;48.554;10.202;2023-02-28T06:55:14;4.35;;;2.67;;
73940;SDS011;62294;48.554;10.202;2023-02-28T06:57:40;7.57;;;4.38;;
73940;SDS011;62294;48.554;10.202;2023-02-28T07:00:08;3.90;;;2.72;;
73940;SDS011;62294;48.554;10.202;2023-02-28T07:02:35;11.35;;;5.18;;
73940;SDS011;62294;48.554;10.202;2023-02-28T07:05:04;3.67;;;2.55;;
73940;SDS011;62294;48.554;10.202;2023-02-28T07:07:31;9.82;;;4.45;;
73940;SDS011;62294;48.554;10.202;2023-02-28T07:09:58;10.98;;;2.58;;
73940;SDS011;62294;48.554;10.202;2023-02-28T07:12:25;10.88;;;5.25;;
73940;SDS011;62294;48.554;10.202;2023-02-28T07:14:52;8.38;;;4.55;;
73940;SDS011;62294;48.554;10.202;2023-02-28T07:17:18;7.35;;;3.92;;
73940;SDS011;62294;48.554;10.202;2023-02-28T07:19:44;7.60;;;4.13;;
73940;SDS011;62294;48.554;10.202;2023-02-28T07:22:11;6.78;;;4.68;;
73940;SDS011;62294;48.554;10.202;2023-02-28T07:24:40;5.85;;;3.83;;
73940;SDS011;62294;48.554;10.202;2023-02-28T07:27:07;5.38;;;3.03;;
73940;SDS011;62294;48.554;10.202;2023-02-28T07:29:34;5.72;;;3.58;;
73940;SDS011;62294;48.554;10.202;2023-02-28T07:32:01;7.38;;;4.47;;
73940;SDS011;62294;48.554;10.202;2023-02-28T07:34:27;5.47;;;2.85;;
73940;SDS011;62294;48.554;10.202;2023-02-28T07:36:54;11.40;;;3.42;;
73940;SDS011;62294;48.554;10.202;2023-02-28T07:39:21;8.55;;;4.70;;
73940;SDS011;62294;48.554;10.202;2023-02-28T07:41:48;7.32;;;4.38;;
73940;SDS011;62294;48.554;10.202;2023-02-28T07:44:15;11.25;;;5.28;;
73940;SDS011;62294;48.554;10.202;2023-02-28T07:46:41;11.05;;;5.10;;
73940;SDS011;62294;48.554;10.202;2023-02-28T07:49:08;10.50;;;3.28;;
73940;SDS011;62294;48.554;10.202;2023-02-28T07:51:35;14.85;;;6.43;;
73940;SDS011;62294;48.554;10.202;2023-02-28T07:54:01;7.47;;;4.30;;
73940;SDS011;62294;48.554;10.202;2023-02-28T07:56:28;10.75;;;5.10;;
73940;SDS011;62294;48.554;10.202;2023-02-28T07:58:55;7.78;;;4.18;;
73940;SDS011;62294;48.554;10.202;2023-02-28T08:01:21;12.10;;;4.20;;
73940;SDS011;62294;48.554;10.202;2023-02-28T08:03:48;10.68;;;4.78;;
73940;SDS011;62294;48.554;10.202;2023-02-28T08:06:16;10.18;;;5.03;;
73940;SDS011;62294;48.554;10.202;2023-02-28T08:08:45;8.18;;;3.97;;
73940;SDS011;62294;48.554;10.202;2023-02-28T08:11:12;6.30;;;3.03;;
73940;SDS011;62294;48.554;10.202;2023-02-28T08:13:39;10.05;;;4.43;;
73940;SDS011;62294;48.554;10.202;2023-02-28T08:16:05;8.82;;;4.22;;
73940;SDS011;62294;48.554;10.202;2023-02-28T08:18:54;9.73;;;3.97;;
73940;SDS011;62294;48.554;10.202;2023-02-28T08:21:19;16.05;;;5.57;;
73940;SDS011;62294;48.554;10.202;2023-02-28T08:23:48;11.13;;;5.18;;
73940;SDS011;62294;48.554;10.202;2023-02-28T08:26:17;6.60;;;3.50;;
73940;SDS011;62294;48.554;10.202;2023-02-28T08:28:44;10.38;;;5.55;;
73940;SDS011;62294;48.554;10.202;2023-02-28T08:31:12;2.92;;;2.22;;
73940;SDS011;62294;48.554;10.202;2023-02-28T08:33:40;6.82;;;3.47;;
73940;SDS011;62294;48.554;10.202;2023-02-28T08:36:08;4.22;;;3.05;;
73940;SDS011;62294;48.554;10.202;2023-02-28T08:38:35;8.30;;;4.32;;
73940;SDS011;62294;48.554;10.202;2023-02-28T08:41:04;8.10;;;4.65;;
73940;SDS011;62294;48.554;10.202;2023-02-28T08:43:33;6.80;;;4.53;;
73940;SDS011;62294;48.554;10.202;2023-02-28T08:46:00;10.07;;;6.10;;
73940;SDS011;62294;48.554;10.202;2023-02-28T08:48:28;13.00;;;7.68;;
73940;SDS011;62294;48.554;10.202;2023-02-28T08:53:32;10.10;;;5.03;;
73940;SDS011;62294;48.554;10.202;2023-02-28T08:55:59;8.75;;;4.93;;
73940;SDS011;62294;48.554;10.202;2023-02-28T08:58:27;13.77;;;8.00;;
73940;SDS011;62294;48.554;10.202;2023-02-28T09:00:54;8.15;;;5.43;;
73940;SDS011;62294;48.554;10.202;2023-02-28T09:03:24;7.65;;;3.53;;
73940;SDS011;62294;48.554;10.202;2023-02-28T09:08:21;9.13;;;4.85;;
73940;SDS011;62294;48.554;10.202;2023-02-28T09:10:47;6.15;;;3.50;;
73940;SDS011;62294;48.554;10.202;2023-02-28T09:13:14;8.73;;;4.85;;
73940;SDS011;62294;48.554;10.202;2023-02-28T09:15:41;10.63;;;4.55;;
73940;SDS011;62294;48.554;10.202;2023-02-28T09:18:07;10.77;;;5.45;;
73940;SDS011;62294;48.554;10.202;2023-02-28T09:20:34;4.63;;;2.70;;
73940;SDS011;62294;48.554;10.202;2023-02-28T09:23:03;8.48;;;4.78;;
73940;SDS011;62294;48.554;10.202;2023-02-28T09:25:30;8.73;;;4.25;;
73940;SDS011;62294;48.554;10.202;2023-02-28T09:27:56;11.63;;;6.18;;
73940;SDS011;62294;48.554;10.202;2023-02-28T09:30:23;10.38;;;5.13;;
73940;SDS011;62294;48.554;10.202;2023-02-28T09:32:50;11.40;;;5.40;;
73940;SDS011;62294;48.554;10.202;2023-02-28T09:35:18;5.95;;;4.22;;
73940;SDS011;62294;48.554;10.202;2023-02-28T09:37:45;10.80;;;5.32;;
73940;SDS011;62294;48.554;10.202;2023-02-28T09:40:11;7.38;;;4.25;;
73940;SDS011;62294;48.554;10.202;2023-02-28T09:42:39;7.55;;;4.03;;
73940;SDS011;62294;48.554;10.202;2023-02-28T09:45:10;10.68;;;5.20;;
73940;SDS011;62294;48.554;10.202;2023-02-28T09:47:52;6.50;;;3.97;;
73940;SDS011;62294;48.554;10.202;2023-02-28T09:52:53;13.80;;;6.18;;
73940;SDS011;62294;48.554;10.202;2023-02-28T09:55:28;8.45;;;3.67;;
73940;SDS011;62294;48.554;10.202;2023-02-28T09:58:15;12.10;;;6.18;;
73940;SDS011;62294;48.554;10.202;2023-02-28T10:00:49;8.15;;;4.35;;
73940;SDS011;62294;48.554;10.202;2023-02-28T10:03:30;8.48;;;5.22;;
73940;SDS011;62294;48.554;10.202;2023-02-28T10:06:11;11.38;;;6.22;;
73940;SDS011;62294;48.554;10.202;2023-02-28T10:11:24;13.88;;;6.90;;
73940;SDS011;62294;48.554;10.202;2023-02-28T10:14:02;7.18;;;4.20;;
73940;SDS011;62294;48.554;10.202;2023-02-28T10:16:48;8.05;;;5.65;;
73940;SDS011;62294;48.554;10.202;2023-02-28T10:19:26;6.95;;;4.28;;
73940;SDS011;62294;48.554;10.202;2023-02-28T10:22:08;11.52;;;6.05;;
73940;SDS011;62294;48.554;10.202;2023-02-28T10:27:18;10.55;;;6.57;;
73940;SDS011;62294;48.554;10.202;2023-02-28T10:29:51;11.90;;;6.32;;
73940;SDS011;62294;48.554;10.202;2023-02-28T10:35:10;6.97;;;4.82;;
73940;SDS011;62294;48.554;10.202;2023-02-28T10:37:53;13.98;;;6.90;;
73940;SDS011;62294;48.554;10.202;2023-02-28T10:43:01;11.82;;;6.03;;
73940;SDS011;62294;48.554;10.202;2023-02-28T10:45:33;13.32;;;6.15;;
73940;SDS011;62294;48.554;10.202;2023-02-28T10:50:37;9.35;;;5.30;;
73940;SDS011;62294;48.554;10.202;2023-02-28T10:55:36;9.68;;;6.07;;
73940;SDS011;62294;48.554;10.202;2023-02-28T10:58:03;6.80;;;4.88;;
73940;SDS011;62294;48.554;10.202;2023-02-28T11:00:46;8.18;;;5.00;;
73940;SDS011;62294;48.554;10.202;2023-02-28T11:03:23;10.80;;;6.13;;
73940;SDS011;62294;48.554;10.202;2023-02-28T11:05:51;15.68;;;6.90;;
73940;SDS011;62294;48.554;10.202;2023-02-28T11:08:17;9.90;;;5.13;;
73940;SDS011;62294;48.554;10.202;2023-02-28T11:10:48;11.15;;;5.53;;
73940;SDS011;62294;48.554;10.202;2023-02-28T11:13:25;11.38;;;5.72;;
73940;SDS011;62294;48.554;10.202;2023-02-28T11:15:58;12.15;;;6.85;;
73940;SDS011;62294;48.554;10.202;2023-02-28T11:18:29;18.05;;;6.93;;
73940;SDS011;62294;48.554;10.202;2023-02-28T11:21:00;9.20;;;5.38;;
73940;SDS011;62294;48.554;10.202;2023-02-28T11:23:30;9.40;;;4.78;;
73940;SDS011;62294;48.554;10.202;2023-02-28T11:26:03;8.13;;;4.97;;
73940;SDS011;62294;48.554;10.202;2023-02-28T11:28:40;12.60;;;8.07;;
73940;SDS011;62294;48.554;10.202;2023-02-28T11:33:51;10.13;;;5.63;;
73940;SDS011;62294;48.554;10.202;2023-02-28T11:36:20;12.55;;;5.57;;
73940;SDS011;62294;48.554;10.202;2023-02-28T11:38:54;8.52;;;4.45;;
73940;SDS011;62294;48.554;10.202;2023-02-28T11:46:57;8.93;;;4.50;;
73940;SDS011;62294;48.554;10.202;2023-02-28T11:50:20;9.73;;;5.15;;
73940;SDS011;62294;48.554;10.202;2023-02-28T11:53:02;10.38;;;5.68;;
73940;SDS011;62294;48.554;10.202;2023-02-28T11:55:45;11.75;;;6.10;;
73940;SDS011;62294;48.554;10.202;2023-02-28T11:58:29;12.15;;;5.55;;
73940;SDS011;62294;48.554;10.202;2023-02-28T12:03:58;7.30;;;4.00;;
73940;SDS011;62294;48.554;10.202;2023-02-28T12:06:45;11.18;;;3.97;;
73940;SDS011;62294;48.554;10.202;2023-02-28T12:17:50;11.93;;;5.55;;
73940;SDS011;62294;48.554;10.202;2023-02-28T12:31:45;14.60;;;8.43;;
73940;SDS011;62294;48.554;10.202;2023-02-28T12:34:22;6.97;;;3.65;;
73940;SDS011;62294;48.554;10.202;2023-02-28T12:36:58;9.93;;;5.93;;
73940;SDS011;62294;48.554;10.202;2023-02-28T12:39:36;12.38;;;5.82;;
73940;SDS011;62294;48.554;10.202;2023-02-28T12:45:18;9.75;;;5.57;;
73940;SDS011;62294;48.554;10.202;2023-02-28T12:47:45;9.85;;;5.72;;
73940;SDS011;62294;48.554;10.202;2023-02-28T12:50:19;7.03;;;4.00;;
73940;SDS011;62294;48.554;10.202;2023-02-28T12:55:21;11.90;;;6.20;;
73940;SDS011;62294;48.554;10.202;2023-02-28T12:58:20;10.52;;;6.25;;
73940;SDS011;62294;48.554;10.202;2023-02-28T13:09:01;7.80;;;5.25;;
73940;SDS011;62294;48.554;10.202;2023-02-28T13:11:53;9.10;;;4.97;;
73940;SDS011;62294;48.554;10.202;2023-02-28T13:19:25;10.07;;;5.57;;
73940;SDS011;62294;48.554;10.202;2023-02-28T13:21:53;9.98;;;5.82;;
73940;SDS011;62294;48.554;10.202;2023-02-28T13:29:37;12.05;;;5.40;;
73940;SDS011;62294;48.554;10.202;2023-02-28T13:42:32;7.63;;;4.28;;
73940;SDS011;62294;48.554;10.202;2023-02-28T13:47:36;6.95;;;3.92;;
73940;SDS011;62294;48.554;10.202;2023-02-28T13:52:48;7.75;;;5.18;;
73940;SDS011;62294;48.554;10.202;2023-02-28T13:55:29;10.85;;;5.05;;
73940;SDS011;62294;48.554;10.202;2023-02-28T14:03:29;11.30;;;5.80;;
73940;SDS011;62294;48.554;10.202;2023-02-28T14:11:36;9.88;;;6.00;;
73940;SDS011;62294;48.554;10.202;2023-02-28T14:14:04;14.07;;;6.53;;
73940;SDS011;62294;48.554;10.202;2023-02-28T14:16:43;14.85;;;6.45;;
73940;SDS011;62294;48.554;10.202;2023-02-28T14:19:19;11.68;;;4.40;;
73940;SDS011;62294;48.554;10.202;2023-02-28T14:22:07;12.07;;;5.85;;
73940;SDS011;62294;48.554;10.202;2023-02-28T14:27:24;7.93;;;4.40;;
73940;SDS011;62294;48.554;10.202;2023-02-28T14:33:19;8.38;;;4.65;;
73940;SDS011;62294;48.554;10.202;2023-02-28T14:38:24;7.95;;;4.53;;
73940;SDS011;62294;48.554;10.202;2023-02-28T14:40:54;9.65;;;5.05;;
73940;SDS011;62294;48.554;10.202;2023-02-28T14:43:25;10.30;;;5.63;;
73940;SDS011;62294;48.554;10.202;2023-02-28T14:45:58;13.18;;;5.22;;
73940;SDS011;62294;48.554;10.202;2023-02-28T14:48:28;14.63;;;6.45;;
73940;SDS011;62294;48.554;10.202;2023-02-28T14:50:57;6.03;;;3.88;;
73940;SDS011;62294;48.554;10.202;2023-02-28T14:53:29;14.23;;;6.25;;
73940;SDS011;62294;48.554;10.202;2023-02-28T14:56:01;8.85;;;4.53;;
73940;SDS011;62294;48.554;10.202;2023-02-28T14:58:29;10.25;;;5.68;;
73940;SDS011;62294;48.554;10.202;2023-02-28T15:00:58;10.05;;;5.65;;
73940;SDS011;62294;48.554;10.202;2023-02-28T15:03:31;10.43;;;5.65;;
73940;SDS011;62294;48.554;10.202;2023-02-28T15:06:04;10.88;;;5.68;;
73940;SDS011;62294;48.554;10.202;2023-02-28T15:08:38;12.20;;;5.53;;
73940;SDS011;62294;48.554;10.202;2023-02-28T15:11:06;6.93;;;4.10;;
73940;SDS011;62294;48.554;10.202;2023-02-28T15:13:39;10.30;;;5.63;;
73940;SDS011;62294;48.554;10.202;2023-02-28T15:16:12;14.65;;;5.80;;
73940;SDS011;62294;48.554;10.202;2023-02-28T15:21:35;10.68;;;6.13;;
73940;SDS011;62294;48.554;10.202;2023-02-28T15:24:19;11.80;;;4.30;;
73940;SDS011;62294;48.554;10.202;2023-02-28T15:27:22;11.93;;;6.45;;
73940;SDS011;62294;48.554;10.202;2023-02-28T15:29:55;11.18;;;5.72;;
73940;SDS011;62294;48.554;10.202;2023-02-28T15:32:32;12.15;;;6.03;;
73940;SDS011;62294;48.554;10.202;2023-02-28T15:35:24;11.55;;;5.85;;
73940;SDS011;62294;48.554;10.202;2023-02-28T15:38:02;13.52;;;6.18;;
73940;SDS011;62294;48.554;10.202;2023-02-28T15:40:44;11.48;;;7.07;;
73940;SDS011;62294;48.554;10.202;2023-02-28T15:43:23;10.38;;;5.50;;
73940;SDS011;62294;48.554;10.202;2023-02-28T15:45:53;10.95;;;5.63;;
73940;SDS011;62294;48.554;10.202;2023-02-28T15:48:51;7.60;;;4.53;;
73940;SDS011;62294;48.554;10.202;2023-02-28T15:54:04;8.82;;;5.35;;
73940;SDS011;62294;48.554;10.202;2023-02-28T15:56:44;8.80;;;4.45;;
73940;SDS011;62294;48.554;10.202;2023-02-28T15:59:14;13.93;;;6.25;;
73940;SDS011;62294;48.554;10.202;2023-02-28T16:01:44;4.45;;;2.75;;
73940;SDS011;62294;48.554;10.202;2023-02-28T16:04:13;6.65;;;3.65;;
73940;SDS011;62294;48.554;10.202;2023-02-28T16:09:44;10.30;;;4.82;;
73940;SDS011;62294;48.554;10.202;2023-02-28T16:12:10;14.20;;;5.97;;
73940;SDS011;62294;48.554;10.202;2023-02-28T16:14:39;10.73;;;5.68;;
73940;SDS011;62294;48.554;10.202;2023-02-28T16:17:07;10.98;;;5.45;;
73940;SDS011;62294;48.554;10.202;2023-02-28T16:19:43;13.63;;;5.80;;
73940;SDS011;62294;48.554;10.202;2023-02-28T16:22:10;12.32;;;6.45;;
73940;SDS011;62294;48.554;10.202;2023-02-28T16:24:37;11.95;;;6.72;;
73940;SDS011;62294;48.554;10.202;2023-02-28T16:27:05;10.40;;;5.10;;
73940;SDS011;62294;48.554;10.202;2023-02-28T16:29:36;13.00;;;6.03;;
73940;SDS011;62294;48.554;10.202;2023-02-28T16:32:06;13.20;;;6.47;;
73940;SDS011;62294;48.554;10.202;2023-02-28T16:34:32;12.82;;;5.68;;
73940;SDS011;62294;48.554;10.202;2023-02-28T16:36:59;9.35;;;5.30;;
73940;SDS011;62294;48.554;10.202;2023-02-28T16:39:26;15.20;;;7.10;;
73940;SDS011;62294;48.554;10.202;2023-02-28T16:41:52;12.68;;;6.53;;
73940;SDS011;62294;48.554;10.202;2023-02-28T16:44:23;13.68;;;6.93;;
73940;SDS011;62294;48.554;10.202;2023-02-28T16:46:53;13.50;;;6.22;;
73940;SDS011;62294;48.554;10.202;2023-02-28T16:49:21;14.88;;;7.50;;
73940;SDS011;62294;48.554;10.202;2023-02-28T16:51:47;15.68;;;7.38;;
73940;SDS011;62294;48.554;10.202;2023-02-28T16:54:14;12.88;;;6.68;;
73940;SDS011;62294;48.554;10.202;2023-02-28T16:56:42;15.48;;;7.75;;
73940;SDS011;62294;48.554;10.202;2023-02-28T16:59:11;16.17;;;6.53;;
73940;SDS011;62294;48.554;10.202;2023-02-28T17:01:38;16.70;;;6.60;;
73940;SDS011;62294;48.554;10.202;2023-02-28T17:04:05;17.60;;;6.22;;
73940;SDS011;62294;48.554;10.202;2023-02-28T17:06:32;15.02;;;6.00;;
73940;SDS011;62294;48.554;10.202;2023-02-28T17:08:59;11.15;;;5.13;;
73940;SDS011;62294;48.554;10.202;2023-02-28T17:11:26;13.88;;;6.00;;
73940;SDS011;62294;48.554;10.202;2023-02-28T17:13:53;12.13;;;5.85;;
73940;SDS011;62294;48.554;10.202;2023-02-28T17:16:30;14.45;;;5.95;;
73940;SDS011;62294;48.554;10.202;2023-02-28T17:19:00;11.90;;;5.40;;
73940;SDS011;62294;48.554;10.202;2023-02-28T17:21:29;12.75;;;6.15;;
73940;SDS011;62294;48.554;10.202;2023-02-28T17:23:56;10.95;;;5.72;;
73940;SDS011;62294;48.554;10.202;2023-02-28T17:26:23;13.23;;;5.90;;
73940;SDS011;62294;48.554;10.202;2023-02-28T17:28:51;14.27;;;6.40;;
73940;SDS011;62294;48.554;10.202;2023-02-28T17:31:18;12.30;;;6.85;;
73940;SDS011;62294;48.554;10.202;2023-02-28T17:33:45;13.48;;;6.32;;